createdAt,value
2023-04-16T00:01:14.541Z,11.7
2023-04-16T00:03:18.311Z,11.4
2023-04-16T00:07:28.468Z,12.3
2023-04-16T00:09:32.084Z,10.9
2023-04-16T00:28:28.248Z,13.4
2023-04-16T00:30:31.872Z,13.8
2023-04-16T00:34:42.139Z,13.8
2023-04-16T00:36:45.740Z,13.5
2023-04-16T00:40:52.957Z,14
2023-04-16T00:42:56.600Z,13.3
2023-04-16T00:45:00.210Z,13.6
2023-04-16T00:47:06.857Z,14.1
2023-04-16T00:53:17.682Z,13.3
2023-04-16T00:55:21.301Z,14.3
2023-04-16T00:57:24.936Z,14.9
2023-04-16T00:59:28.528Z,13.8
2023-04-16T01:01:35.234Z,16.8
2023-04-16T01:05:43.927Z,15.9
2023-04-16T01:06:47.264Z,15.2
2023-04-16T01:08:50.918Z,15.2
2023-04-16T01:10:54.506Z,16.7
2023-04-16T01:12:58.098Z,16.8
2023-04-16T01:15:04.781Z,14.8
2023-04-16T01:17:08.379Z,17.2
2023-04-16T01:19:12.159Z,16.9
2023-04-16T01:21:15.602Z,16.4
2023-04-16T01:27:26.398Z,16.4
2023-04-16T01:29:33.051Z,17
2023-04-16T01:31:36.764Z,18
2023-04-16T01:33:40.320Z,17.2
2023-04-16T01:35:43.914Z,17.7
2023-04-16T01:39:51.122Z,18.8
2023-04-16T01:41:54.710Z,16.1
2023-04-16T01:50:12.179Z,18.9
2023-04-16T01:58:29.682Z,18.4
2023-04-16T02:00:33.302Z,19.7
2023-04-16T02:03:40.445Z,19.5
2023-04-16T02:05:43.834Z,19.3
2023-04-16T02:18:08.621Z,21.5
2023-04-16T02:20:12.119Z,20.8
2023-04-16T02:22:15.770Z,20.7
2023-04-16T02:24:19.349Z,20.3
2023-04-16T02:28:29.634Z,19.6
2023-04-16T02:30:33.759Z,20.3
2023-04-16T02:34:40.458Z,20.3
2023-04-16T02:40:54.351Z,22.3
2023-04-16T02:42:57.948Z,23
2023-04-16T03:00:34.408Z,21.6
2023-04-16T03:02:36.949Z,24.3
2023-04-16T03:04:40.447Z,23.8
2023-04-16T03:06:44.054Z,21.4
2023-04-16T03:08:50.739Z,23
2023-04-16T03:10:54.342Z,23.1
2023-04-16T03:15:01.592Z,23.2
2023-04-16T03:17:05.153Z,22.7
2023-04-16T03:19:09.200Z,22.4
2023-04-16T03:21:12.369Z,24.4
2023-04-16T03:23:19.078Z,24.7
2023-04-16T03:25:22.698Z,21.9
2023-04-16T03:37:47.332Z,25.2
2023-04-16T03:41:54.578Z,24.9
2023-04-16T03:43:58.203Z,25
2023-04-16T03:46:01.897Z,22.6
2023-04-16T03:48:05.412Z,25.6
2023-04-16T03:50:08.988Z,25.7
2023-04-16T03:52:15.659Z,28.4
2023-04-16T03:54:20.768Z,25.8
2023-04-16T03:56:22.897Z,26.4
2023-04-16T03:58:52.909Z,25.7
2023-04-16T04:00:56.546Z,25.9
2023-04-16T04:03:00.306Z,26.2
2023-04-16T04:05:06.882Z,26.8
2023-04-16T04:07:10.444Z,26.1
2023-04-16T04:09:14.058Z,27.5
2023-04-16T04:11:17.661Z,24.3
2023-04-16T04:13:21.267Z,25.3
2023-04-16T04:15:24.847Z,25.7
2023-04-16T04:19:35.098Z,25.4
2023-04-16T04:21:38.693Z,28.3
2023-04-16T04:23:42.273Z,25
2023-04-16T04:25:45.996Z,24.2
2023-04-16T04:27:49.506Z,24.2
2023-04-16T04:29:53.096Z,23.9
2023-04-16T04:31:56.758Z,24.3
2023-04-16T04:42:17.774Z,25.3
2023-04-16T04:53:42.199Z,24.8
2023-04-16T04:55:45.817Z,23.7
2023-04-16T04:57:49.400Z,24
2023-04-16T04:59:53.022Z,23.8
2023-04-16T05:01:59.771Z,25
2023-04-16T05:04:03.340Z,25.4
2023-04-16T05:06:06.919Z,25.5
2023-04-16T05:08:10.508Z,25.1
2023-04-16T05:10:14.135Z,26.7
2023-04-16T05:12:17.737Z,27.3
2023-04-16T05:14:21.316Z,27.1
2023-04-16T05:16:28.034Z,27.5
2023-04-16T05:18:31.624Z,27.2
2023-04-16T05:22:38.816Z,26.7
2023-04-16T05:24:42.407Z,24.8
2023-04-16T05:26:46.071Z,26.9
2023-04-16T05:28:49.635Z,28.9
2023-04-16T05:30:56.343Z,28.3
2023-04-16T05:33:00.050Z,27.6
2023-04-16T05:37:07.151Z,24.6
2023-04-16T05:41:14.349Z,28.1
2023-04-16T05:45:26.734Z,28.9
2023-04-16T05:50:35.172Z,27.3
2023-04-16T05:54:42.353Z,26.7
2023-04-16T05:56:46.001Z,29.1
2023-04-16T05:58:52.625Z,28.1
2023-04-16T06:03:00.151Z,26.6
2023-04-16T06:05:03.500Z,30
2023-04-16T06:07:07.493Z,29.1
2023-04-16T06:09:10.956Z,28.6
2023-04-16T06:11:14.275Z,28.2
2023-04-16T06:13:20.960Z,29
2023-04-16T06:15:24.562Z,28.3
2023-04-16T06:19:31.764Z,25.6
2023-04-16T06:21:35.376Z,26
2023-04-16T06:23:38.954Z,27.2
2023-04-16T06:25:42.553Z,25.9
2023-04-16T06:27:49.237Z,29.1
2023-04-16T06:29:52.831Z,26.5
2023-04-16T06:31:56.498Z,28.8
2023-04-16T06:36:03.658Z,28.8
2023-04-16T06:38:07.252Z,27.8
2023-04-16T06:42:17.534Z,30.8
2023-04-16T06:44:21.193Z,30.6
2023-04-16T06:46:24.771Z,27.9
2023-04-16T06:47:28.145Z,30.2
2023-04-16T06:49:31.720Z,30
2023-04-16T06:53:38.944Z,27.6
2023-04-16T06:55:45.606Z,27.9
2023-04-16T06:57:49.227Z,29.2
2023-04-16T06:59:54.395Z,23.2
2023-04-16T07:10:15.453Z,29
2023-04-16T07:12:20.763Z,26.8
2023-04-16T07:14:22.684Z,28.4
2023-04-16T07:16:26.294Z,28.2
2023-04-16T07:18:29.908Z,25.7
2023-04-16T07:20:34.218Z,27.1
2023-04-16T07:24:43.758Z,32.1
2023-04-16T07:26:47.370Z,29.3
2023-04-16T07:28:50.936Z,28.1
2023-04-16T07:30:54.635Z,27.2
2023-04-16T07:32:58.168Z,29.2
2023-04-16T07:35:01.799Z,28.5
2023-04-16T07:37:05.359Z,29
2023-04-16T07:55:58.766Z,27.5
2023-04-16T07:58:02.389Z,28.8
2023-04-16T08:00:05.957Z,29.3
2023-04-16T08:02:09.653Z,30.5
2023-04-16T08:04:13.287Z,29.4
2023-04-16T08:06:19.761Z,30
2023-04-16T08:08:23.353Z,27.7
2023-04-16T08:10:26.955Z,31.4
2023-04-16T08:12:30.542Z,29
2023-04-16T08:14:34.117Z,30.3
2023-04-16T08:16:37.685Z,29.8
2023-04-16T08:18:41.291Z,26.9
2023-04-16T08:20:47.982Z,27.5
2023-04-16T08:24:55.132Z,30.1
2023-04-16T08:29:02.334Z,28.6
2023-04-16T08:31:06.011Z,25.9
2023-04-16T08:35:16.155Z,28.8
2023-04-16T08:37:19.733Z,27.9
2023-04-16T08:39:23.323Z,27.3
2023-04-16T08:40:27.534Z,28
2023-04-16T08:42:30.215Z,27.3
2023-04-16T08:44:33.786Z,25.1
2023-04-16T08:46:37.480Z,23.9
2023-04-16T08:48:44.056Z,25.6
2023-04-16T08:50:47.581Z,24.6
2023-04-16T08:52:51.154Z,22.7
2023-04-16T08:56:58.305Z,22.5
2023-04-16T09:01:05.471Z,22.3
2023-04-16T09:05:15.654Z,23.3
2023-04-16T09:07:19.254Z,22.9
2023-04-16T09:09:22.786Z,22.7
2023-04-16T09:11:26.363Z,21.1
2023-04-16T09:13:29.948Z,22.3
2023-04-16T09:15:35.164Z,20.2
2023-04-16T09:17:40.242Z,22.9
2023-04-16T09:19:43.698Z,24.1
2023-04-16T09:21:47.260Z,21.8
2023-04-16T09:25:54.367Z,21.9
2023-04-16T09:27:57.929Z,19.3
2023-04-16T09:37:18.505Z,20.2
2023-04-16T09:39:21.994Z,18.5
2023-04-16T09:41:25.524Z,18.1
2023-04-16T09:43:29.088Z,18.7
2023-04-16T09:45:35.699Z,19.2
2023-04-16T09:47:39.246Z,17.8
2023-04-16T09:49:42.734Z,19.3
2023-04-16T09:51:46.269Z,17.1
2023-04-16T09:55:53.327Z,16.8
2023-04-16T09:57:56.861Z,15.4
2023-04-16T10:02:14.280Z,17.7
2023-04-16T10:04:10.575Z,16.1
2023-04-16T10:06:13.962Z,15.7
2023-04-16T10:08:17.481Z,16.5
2023-04-16T10:10:21.005Z,15
2023-04-16T10:12:24.473Z,16.2
2023-04-16T10:14:31.014Z,16.5
2023-04-16T10:16:34.577Z,16.4
2023-04-16T10:18:38.037Z,15.3
2023-04-16T10:22:45.012Z,15.9
2023-04-16T10:24:48.527Z,14.9
2023-04-16T10:26:52.017Z,16.1
2023-04-16T10:28:58.574Z,18.2
2023-04-16T10:31:02.119Z,14.8
2023-04-16T10:33:05.636Z,14.1
2023-04-16T10:34:08.814Z,14.8
2023-04-16T10:36:12.369Z,14.8
2023-04-16T10:38:15.814Z,14.8
2023-04-16T10:40:19.347Z,14
2023-04-16T10:46:32.981Z,13.9
2023-04-16T10:48:48.825Z,15
2023-04-16T10:50:39.830Z,15.2
2023-04-16T10:52:43.320Z,14.7
2023-04-16T10:54:46.854Z,15.5
2023-04-16T10:58:56.915Z,13.7
2023-04-16T11:01:00.361Z,15
2023-04-16T11:03:03.941Z,13.9
2023-04-16T11:05:07.376Z,12.9
2023-04-16T11:11:21.029Z,14.9
2023-04-16T11:15:27.967Z,15.1
2023-04-16T11:17:31.523Z,14.4
2023-04-16T11:32:19.542Z,12.8
2023-04-16T11:34:22.988Z,12.1
2023-04-16T11:36:27.789Z,13.4
2023-04-16T11:46:47.010Z,12
2023-04-16T11:48:50.436Z,11.3
2023-04-16T11:50:53.887Z,13.6
2023-04-16T11:53:00.472Z,12.7
2023-04-16T11:57:07.379Z,11.8
2023-04-16T12:09:31.199Z,11.8
2023-04-16T12:11:34.672Z,11.6
2023-04-16T12:13:38.126Z,12.2
2023-04-16T12:15:42.647Z,13.1
2023-04-16T12:17:45.123Z,11.2
2023-04-16T12:19:48.478Z,12.8
2023-04-16T12:21:55.054Z,12.7
2023-04-16T12:23:58.505Z,13.7
2023-04-16T12:26:01.969Z,13
2023-04-16T12:31:12.203Z,12.2
2023-04-16T12:51:52.965Z,13.1
2023-04-16T12:56:01.459Z,10.8
2023-04-16T12:58:04.839Z,11.3
2023-04-16T13:00:08.302Z,12.6
2023-04-16T13:02:11.897Z,12.3
2023-04-16T13:04:18.421Z,12.2
2023-04-16T13:06:21.764Z,11.6
2023-04-16T13:08:25.204Z,12.3
2023-04-16T13:10:30.366Z,12.9
2023-04-16T13:12:32.093Z,11.8
2023-04-16T13:14:35.554Z,11.2
2023-04-16T13:23:55.812Z,11.6
2023-04-16T13:25:59.250Z,10.8
2023-04-16T13:30:06.177Z,10.3
2023-04-16T13:44:33.402Z,13.4
2023-04-16T13:46:39.985Z,11.2
2023-04-16T13:48:43.351Z,13
2023-04-16T13:50:46.858Z,10.4
2023-04-16T13:54:53.738Z,10.8
2023-04-16T14:01:07.292Z,12.4
2023-04-16T14:03:10.794Z,12.4
2023-04-16T14:07:17.689Z,11.7
2023-04-16T14:09:21.164Z,11.5
2023-04-16T14:13:28.104Z,10.9
2023-04-16T14:15:34.673Z,9.7
2023-04-16T14:17:38.184Z,10.4
2023-04-16T14:20:44.933Z,10.7
2023-04-16T14:22:48.424Z,10.9
2023-04-16T14:24:51.886Z,11.1
2023-04-16T14:26:55.403Z,11
2023-04-16T14:31:05.502Z,11.5
2023-04-16T14:37:15.959Z,10.9
2023-04-16T14:39:19.424Z,10.7
2023-04-16T14:41:22.882Z,9.4
2023-04-16T14:43:29.480Z,11.8
2023-04-16T14:45:33.010Z,10.5
2023-04-16T14:47:36.489Z,9.9
2023-04-16T14:49:39.947Z,9.8
2023-04-16T14:51:43.444Z,10.2
2023-04-16T14:53:46.970Z,11.7
2023-04-16T14:55:50.437Z,10.6
2023-04-16T14:57:57.052Z,10.4
2023-04-16T15:00:00.521Z,10.1
2023-04-16T15:02:04.052Z,11.6
2023-04-16T15:04:07.579Z,10.1
2023-04-16T15:08:14.475Z,11.4
2023-04-16T15:10:18.002Z,9
2023-04-16T15:12:24.550Z,11.8
2023-04-16T15:14:28.038Z,10.7
2023-04-16T15:16:31.557Z,11
2023-04-16T15:18:55.599Z,11
2023-04-16T15:20:59.137Z,11.4
2023-04-16T15:23:02.630Z,10.6
2023-04-16T15:25:09.192Z,11.3
2023-04-16T15:27:12.683Z,11.1
2023-04-16T15:31:19.675Z,12.2
2023-04-16T15:35:26.696Z,11.3
2023-04-16T15:37:30.198Z,11
2023-04-16T15:39:36.760Z,11
2023-04-16T15:41:53.633Z,10.4
2023-04-16T15:43:43.798Z,12.4
2023-04-16T15:45:47.291Z,13
2023-04-16T15:47:50.828Z,11.4
2023-04-16T15:49:54.271Z,11.3
2023-04-16T15:51:57.782Z,11.3
2023-04-16T15:54:04.404Z,11.7
2023-04-16T15:56:07.908Z,10.9
2023-04-16T16:02:18.595Z,12.4
2023-04-16T16:10:35.899Z,12.8
2023-04-16T16:12:39.074Z,12.1
2023-04-16T16:13:42.374Z,12
2023-04-16T16:15:45.920Z,11.9
2023-04-16T16:17:49.419Z,13
2023-04-16T16:19:52.915Z,11.4
2023-04-16T16:21:59.523Z,13.6
2023-04-16T16:24:03.062Z,13.2
2023-04-16T16:26:06.543Z,12.6
2023-04-16T16:28:10.074Z,14.5
2023-04-16T16:30:13.602Z,13.4
2023-04-16T16:32:17.159Z,12.9
2023-04-16T16:34:21.457Z,12.8
2023-04-16T16:36:27.281Z,14.9
2023-04-16T16:38:30.800Z,13.9
2023-04-16T16:46:44.941Z,14.3
2023-04-16T16:50:55.034Z,13.8
2023-04-16T17:09:29.865Z,14.6
2023-04-16T17:10:33.800Z,13.9
2023-04-16T17:12:36.704Z,13.4
2023-04-16T17:14:40.275Z,13.8
2023-04-16T17:16:43.838Z,13.8
2023-04-16T17:18:50.444Z,13.9
2023-04-16T17:20:53.969Z,13.9
2023-04-16T17:22:57.472Z,13.4
2023-04-16T17:25:01.002Z,13.9
2023-04-16T17:27:04.597Z,14.8
2023-04-16T17:29:08.109Z,15.6
2023-04-16T17:31:11.661Z,14.1
2023-04-16T17:33:18.315Z,13.7
2023-04-16T17:35:21.782Z,14.3
2023-04-16T17:37:25.346Z,13.6
2023-04-16T17:39:28.901Z,14.1
2023-04-16T17:41:32.895Z,15.1
2023-04-16T17:43:36.440Z,14.7
2023-04-16T17:45:40.631Z,15.1
2023-04-16T17:47:47.140Z,15.9
2023-04-16T17:49:50.642Z,15.2
2023-04-16T17:53:57.754Z,16
2023-04-16T17:56:01.316Z,16.2
2023-04-16T17:58:04.869Z,16.3
2023-04-16T18:02:15.149Z,15.9
2023-04-16T18:04:19.189Z,15.7
2023-04-16T18:06:22.146Z,16.1
2023-04-16T18:07:25.500Z,15.4
2023-04-16T18:11:32.585Z,15.5
2023-04-16T18:13:36.170Z,15.3
2023-04-16T18:15:43.186Z,16.3
2023-04-16T18:17:46.365Z,16.1
2023-04-16T18:19:49.870Z,16.9
2023-04-16T18:21:53.430Z,16.5
2023-04-16T18:26:00.544Z,16.6
2023-04-16T18:30:19.888Z,16.8
2023-04-16T18:34:17.840Z,16.3
2023-04-16T18:46:42.315Z,17.1
2023-04-16T18:48:45.801Z,16.9
2023-04-16T18:50:49.377Z,19.6
2023-04-16T18:59:08.330Z,19.2
2023-04-16T19:01:11.854Z,18.9
2023-04-16T19:03:15.381Z,20.5
2023-04-16T19:05:33.804Z,20.8
2023-04-16T19:07:37.101Z,20.2
2023-04-16T19:09:40.663Z,21.5
2023-04-16T19:11:47.276Z,20.5
2023-04-16T19:13:50.815Z,20.1
2023-04-16T19:15:54.410Z,19.9
2023-04-16T19:17:58.022Z,18.6
2023-04-16T19:20:01.611Z,18.3
2023-04-16T19:22:05.026Z,20.2
2023-04-16T19:24:08.607Z,18
2023-04-16T19:26:15.218Z,21.4
2023-04-16T19:28:18.789Z,19
2023-04-16T19:32:25.916Z,19.7
2023-04-16T19:40:43.207Z,19.7
2023-04-16T19:42:46.775Z,19.2
2023-04-16T19:46:53.878Z,20
2023-04-16T19:48:57.467Z,19
2023-04-16T19:51:01.002Z,19.8
2023-04-16T19:53:04.563Z,19.7
2023-04-16T19:57:14.739Z,19.7
2023-04-16T19:59:18.286Z,20.9
2023-04-16T20:00:21.623Z,18.8
2023-04-16T20:29:17.664Z,20
2023-04-16T20:31:21.220Z,19.8
2023-04-16T20:33:24.774Z,20.3
2023-04-16T20:39:38.549Z,19
2023-04-16T20:41:42.117Z,21.7
2023-04-16T20:43:45.666Z,20.8
2023-04-16T20:45:49.287Z,18.2
2023-04-16T20:47:52.841Z,20.5
2023-04-16T20:49:56.364Z,20.5
2023-04-16T20:52:02.991Z,18.9
2023-04-16T20:54:06.551Z,18.9
2023-04-16T20:57:13.448Z,20.6
2023-04-16T20:59:17.625Z,19.7
2023-04-16T21:01:20.638Z,18.3
2023-04-16T21:03:24.385Z,20.5
2023-04-16T21:07:34.372Z,21.6
2023-04-16T21:09:37.914Z,21.1
2023-04-16T21:11:41.477Z,22.1
2023-04-16T21:15:48.717Z,22.6
2023-04-16T21:17:52.279Z,23.2
2023-04-16T21:19:58.881Z,18.9
2023-04-16T21:24:06.030Z,22.7
2023-04-16T21:26:09.576Z,21.5
2023-04-16T21:28:13.148Z,21.4
2023-04-16T21:42:41.300Z,22.7
2023-04-16T21:44:44.840Z,21.9
2023-04-16T21:46:48.481Z,26
2023-04-16T21:48:55.113Z,25.1
2023-04-16T21:53:02.266Z,23.2
2023-04-16T21:54:05.621Z,23.2
2023-04-16T21:56:09.183Z,24.7
2023-04-16T21:58:12.780Z,23.8
2023-04-16T22:00:16.394Z,23.8
2023-04-16T22:02:23.159Z,24.6
2023-04-16T22:04:26.607Z,24.1
2023-04-16T22:06:30.208Z,23.6
2023-04-16T22:08:33.803Z,23.5
2023-04-16T22:10:37.380Z,23.3
2023-04-16T22:12:40.982Z,22.3
2023-04-16T22:14:55.814Z,24.1
2023-04-16T22:29:12.905Z,24.5
2023-04-16T22:47:51.203Z,24.1
2023-04-16T22:49:54.735Z,25.2
2023-04-16T22:54:22.564Z,25.8
2023-04-16T22:56:26.150Z,25.1
2023-04-16T23:02:40.091Z,25
2023-04-16T23:04:43.587Z,24.1
2023-04-16T23:06:47.219Z,25
2023-04-16T23:08:50.786Z,24
2023-04-16T23:10:54.400Z,25.6
2023-04-16T23:13:01.057Z,26.6
2023-04-16T23:19:12.099Z,25.4
2023-04-16T23:21:15.429Z,27.5
2023-04-16T23:31:36.689Z,23.3
2023-04-16T23:33:40.086Z,24.2
2023-04-16T23:35:43.669Z,23.1
2023-04-16T23:39:50.879Z,20.3
2023-04-16T23:41:57.559Z,23.8
2023-04-16T23:44:01.144Z,21.8
2023-04-16T23:46:04.879Z,21.5
2023-04-16T23:53:18.881Z,20.5
